• Join FlightAware (Why Join?)
  • Login
  • US Flag 
12:41PM EDT


 

Airport Tracker/Info


-or-


 

Live Flight TrackerFlight Track Log ✈ THU880 ✈ 24-Aug-2013 ✈ CYQT - CYHD

Flight Track Log - Related Links

Times and Time Zones

All times are in EDT time to prevent confusion due to time zone crossing. See the THU880 flight status page for this flight to view local times or setup timezone preferences in your user account.

Time Position Orientation Groundspeed Altitude Reporting Facility
EDT Latitude Longitude Course Direction KTS MPH feet Rate Location/Type
11:08AM 48.3333 -89.2667 305° West 150 173 1,500  Level Winnipeg Center
11:09AM 48.3167 -89.1833 107° East 170 196 3,300 1,920 Climbing Winnipeg Center
11:10AM 48.2833 -89.2500 233° Southwest 180 207 5,400 1,860 Climbing Winnipeg Center
11:11AM 48.3000 -89.3167 291° West 180 207 7,100 1,680 Climbing Winnipeg Center
11:12AM 48.2833 -89.4000 253° West 190 219 8,900 1,800 Climbing Winnipeg Center
11:13AM 48.2667 -89.4833 253° West 190 219 10,700 1,620 Climbing Winnipeg Center
11:14AM 48.6127 -89.8635 305° West  Level FlightAware Approximate
11:14AM 48.3000 -89.5500 307° West 200 230 12,200  Level Winnipeg Center
11:15AM 48.3000 -89.6167 270° West 190 219 14,000 1,680 Climbing Winnipeg Center
11:16AM 48.3000 -89.7167 270° West 190 219 15,600 1,380 Climbing Winnipeg Center
11:17AM 48.3333 -89.8000 301° West 200 230 16,900 1,200 Climbing Winnipeg Center
11:18AM 48.3333 -89.8667 270° West 200 230 18,000 600 Climbing Winnipeg Center
11:19AM 48.3500 -89.9667 284° West 240 276 18,100  Climbing Winnipeg Center
11:20AM 48.3667 -90.0667 284° West 260 299 18,000 -60 Descending Winnipeg Center
11:21AM 48.4000 -90.1667 297° West 270 311 18,000 -60 Level Winnipeg Center
11:22AM 48.4500 -90.2500 312° West 280 322 17,900  Descending Winnipeg Center
11:23AM 48.5167 -90.3167 326° Northwest 280 322 18,100  Climbing Winnipeg Center
11:24AM 48.5667 -90.4167 307° West 280 322 18,000 -60 Descending Winnipeg Center
11:25AM 48.6167 -90.5167 307° West 280 322 18,000 -60 Level Winnipeg Center
11:26AM 48.6667 -90.5833 319° Northwest 280 322 17,900  Descending Winnipeg Center
11:27AM 48.7167 -90.6833 307° West 280 322 18,000  Climbing Winnipeg Center
11:28AM 48.7667 -90.7667 312° West 280 322 17,900  Descending Winnipeg Center
11:29AM 48.8333 -90.8667 315° West 280 322 18,000  Climbing Winnipeg Center
11:30AM 48.8667 -90.9667 297° West 280 322 18,000  Level Winnipeg Center
11:31AM 48.9167 -91.0333 319° Northwest 280 322 18,000  Level Winnipeg Center
11:32AM 48.9667 -91.1333 307° West 280 322 18,000  Level Winnipeg Center
11:33AM 49.0167 -91.2333 307° West 280 322 18,000  Level Winnipeg Center
11:34AM 49.0667 -91.3167 312° West 280 322 18,000  Level Winnipeg Center
11:35AM 49.1000 -91.4167 297° West 280 322 18,100  Climbing Winnipeg Center
11:36AM 49.1667 -91.5167 316° Northwest 280 322 18,000 -60 Descending Winnipeg Center
11:37AM 49.2167 -91.5833 319° Northwest 280 322 18,000 -660 Level Winnipeg Center
11:38AM 49.2667 -91.6833 307° West 290 334 16,700 -1,620 Descending Winnipeg Center
11:39AM 49.3167 -91.7833 308° West 310 357 14,800 -1,980 Descending Winnipeg Center
11:40AM 49.3833 -91.9000 311° West 310 357 12,800 -1,980 Descending Winnipeg Center
11:41AM 49.4333 -91.9667 319° Northwest 290 334 10,900 -2,100 Descending Winnipeg Center
11:42AM 49.4833 -92.0667 308° West 280 322 8,700 -1,860 Descending Winnipeg Center
11:43AM 49.5333 -92.1667 308° West 290 334 7,200 -1,560 Descending Winnipeg Center
11:44AM 49.5833 -92.2667 308° West 280 322 5,600 -1,200 Descending Winnipeg Center
11:45AM 49.6333 -92.3333 319° Northwest 270 311 4,800 -840 Descending Winnipeg Center
11:46AM 49.6667 -92.4333 297° West 260 299 4,000 -840 Descending Winnipeg Center
11:47AM 49.7167 -92.5167 313° West 250 288 3,200 -480 Descending Winnipeg Center
11:48AM 49.7667 -92.5833 319° Northwest 220 253 3,100 -60 Descending Winnipeg Center
11:49AM 49.8167 -92.6333 327° Northwest 210 242 3,100  Level Winnipeg Center
11:50AM 49.8500 -92.7167 302° West 210 242 3,100  Level Winnipeg Center
11:51AM 49.8833 -92.7833 308° West 210 242 3,100 -60 Level Winnipeg Center
11:52AM 49.9167 -92.8333 316° Northwest 190 219 3,000 60 Descending Winnipeg Center
11:53AM 49.9333 -92.9167 287° West 180 207 3,300  Climbing Winnipeg Center
11:54AM 49.9000 -92.9333 198° South 170 196 3,100 -240 Descending Winnipeg Center
11:55AM 49.8667 -92.9167 162° South 160 184 2,900 -60 Descending Winnipeg Center
11:56AM 49.8500 -92.8333 107° East 150 173 3,000 -240 Climbing Winnipeg Center
11:57AM 49.8333 -92.7833 117° Southeast 140 161 2,500 -720 Descending Winnipeg Center
11:58AM 49.8167 -92.7333 117° Southeast 130 150 1,600 -600 Descending Winnipeg Center
11:59AM 49.8167 -92.7167 90° East 70 81 1,400 -120 Descending Winnipeg Center
12:00PM 49.8167 -92.7167 90° East 40 46 1,400  Level Winnipeg Center